createdAt,value
2019-05-30T00:00:21.260Z,57.89
2019-05-30T00:02:49.720Z,58.58
2019-05-30T00:05:18.143Z,58.91
2019-05-30T00:07:46.570Z,58.51
2019-05-30T00:10:15.183Z,58.53
2019-05-30T00:12:43.615Z,58.74
2019-05-30T00:15:12.377Z,58.74
2019-05-30T00:17:40.814Z,59.46
2019-05-30T00:20:09.679Z,59.13
2019-05-30T00:22:38.118Z,59.08
2019-05-30T00:25:07.876Z,58.89
2019-05-30T00:27:36.320Z,58.88
2019-05-30T00:30:22.852Z,59.32
2019-05-30T00:32:36.023Z,60.08
2019-05-30T00:35:06.227Z,59.39
2019-05-30T00:37:34.655Z,59.23
2019-05-30T00:40:04.133Z,58.58
2019-05-30T00:42:33.864Z,59.25
2019-05-30T00:45:08.860Z,59.07
2019-05-30T00:47:32.643Z,58.57
2019-05-30T00:50:02.472Z,58.20
2019-05-30T00:52:31.278Z,60.30
2019-05-30T00:55:00.668Z,58.24
2019-05-30T00:57:29.150Z,58.32
2019-05-30T00:59:58.749Z,58.17
2019-05-30T01:02:27.209Z,57.64
2019-05-30T01:04:56.962Z,58.26
2019-05-30T01:07:25.516Z,58.34
2019-05-30T01:09:54.285Z,58.40
2019-05-30T01:12:22.723Z,58.61
2019-05-30T01:14:51.149Z,58.38
2019-05-30T01:17:19.600Z,58.88
2019-05-30T01:19:48.021Z,58.51
2019-05-30T01:22:16.449Z,58.78
2019-05-30T01:24:44.894Z,58.87
2019-05-30T01:27:13.319Z,58.57
2019-05-30T01:29:41.794Z,58.39
2019-05-30T01:32:14.785Z,58.24
2019-05-30T01:34:43.205Z,59.00
2019-05-30T01:37:11.838Z,59.01
2019-05-30T01:39:40.265Z,58.91
2019-05-30T01:42:08.684Z,58.45
2019-05-30T01:44:37.120Z,59.61
2019-05-30T01:47:06.376Z,58.32
2019-05-30T01:49:34.947Z,59.04
2019-05-30T01:52:04.491Z,59.13
2019-05-30T01:54:33.147Z,60.19
2019-05-30T01:57:02.593Z,59.91
2019-05-30T01:59:31.214Z,59.35
2019-05-30T02:02:00.831Z,59.40
2019-05-30T02:04:29.351Z,59.33
2019-05-30T02:06:59.099Z,59.38
2019-05-30T02:09:27.710Z,59.55
2019-05-30T02:11:56.149Z,59.80
2019-05-30T02:14:24.583Z,59.96
2019-05-30T02:16:53.011Z,59.99
2019-05-30T02:19:21.448Z,59.55
2019-05-30T02:21:49.878Z,59.20
2019-05-30T02:24:18.367Z,58.64
2019-05-30T02:26:46.801Z,59.98
2019-05-30T02:29:15.219Z,59.73
2019-05-30T02:31:43.665Z,59.52
2019-05-30T02:34:12.449Z,60.70
2019-05-30T02:36:40.877Z,60.20
2019-05-30T02:39:10.303Z,60.12
2019-05-30T02:41:39.519Z,60.41
2019-05-30T02:44:09.699Z,60.36
2019-05-30T02:46:38.129Z,61.10
2019-05-30T02:49:11.049Z,60.70
2019-05-30T02:51:36.710Z,61.25
2019-05-30T02:54:07.016Z,58.47
2019-05-30T02:56:35.347Z,60.62
2019-05-30T02:59:05.512Z,60.54
2019-05-30T03:01:33.916Z,59.45
2019-05-30T03:04:03.981Z,59.67
2019-05-30T03:06:33.041Z,59.43
2019-05-30T03:09:02.495Z,59.24
2019-05-30T03:11:31.347Z,59.43
2019-05-30T03:14:02.014Z,57.55
2019-05-30T03:16:30.259Z,58.82
2019-05-30T03:18:59.072Z,57.95
2019-05-30T03:21:27.498Z,57.43
2019-05-30T03:23:55.911Z,57.15
2019-05-30T03:26:24.358Z,56.90
2019-05-30T03:28:53.639Z,56.71
2019-05-30T03:31:29.069Z,56.90
2019-05-30T03:33:54.856Z,56.66
2019-05-30T03:36:29.691Z,55.89
2019-05-30T03:38:53.772Z,56.64
2019-05-30T03:41:23.062Z,56.48
2019-05-30T03:43:51.489Z,55.47
2019-05-30T03:46:22.984Z,55.65
2019-05-30T03:48:54.793Z,55.22
2019-05-30T03:51:24.072Z,55.62
2019-05-30T03:53:53.039Z,54.98
2019-05-30T03:56:27.622Z,55.25
2019-05-30T03:59:09.818Z,54.64
2019-05-30T04:01:46.956Z,54.16
2019-05-30T04:04:21.081Z,54.93
2019-05-30T04:06:52.621Z,54.48
2019-05-30T04:09:25.057Z,54.82
2019-05-30T04:11:56.617Z,53.98
2019-05-30T04:14:28.370Z,53.56
2019-05-30T04:16:56.793Z,53.13
2019-05-30T04:19:25.241Z,54.29
2019-05-30T04:21:53.666Z,53.85
2019-05-30T04:24:22.082Z,53.95
2019-05-30T04:26:50.518Z,53.59
2019-05-30T04:29:19.113Z,53.11
2019-05-30T04:31:47.557Z,53.39
2019-05-30T04:34:17.121Z,52.89
2019-05-30T04:36:46.145Z,52.46
2019-05-30T04:39:15.179Z,53.69
2019-05-30T04:41:43.723Z,52.65
2019-05-30T04:44:13.851Z,52.41
2019-05-30T04:46:42.342Z,52.19
2019-05-30T04:49:12.339Z,52.23
2019-05-30T04:51:41.024Z,52.62
2019-05-30T04:54:10.346Z,52.05
2019-05-30T04:56:39.483Z,52.29
2019-05-30T04:59:08.171Z,52.20
2019-05-30T05:01:36.614Z,53.07
2019-05-30T05:04:05.054Z,51.79
2019-05-30T05:06:33.481Z,52.28
2019-05-30T05:09:01.939Z,52.13
2019-05-30T05:11:30.344Z,51.96
2019-05-30T05:13:58.853Z,51.36
2019-05-30T05:16:35.687Z,51.85
2019-05-30T05:18:57.459Z,52.26
2019-05-30T05:21:25.884Z,52.11
2019-05-30T05:23:54.312Z,51.90
2019-05-30T05:26:23.649Z,52.60
2019-05-30T05:28:52.070Z,51.09
2019-05-30T05:31:20.526Z,50.80
2019-05-30T05:33:56.555Z,51.50
2019-05-30T05:36:19.508Z,50.82
2019-05-30T05:38:47.946Z,51.16
2019-05-30T05:41:16.388Z,49.97
2019-05-30T05:43:44.818Z,51.01
2019-05-30T05:46:13.244Z,49.85
2019-05-30T05:48:41.678Z,49.46
2019-05-30T05:51:10.126Z,49.87
2019-05-30T05:53:38.589Z,50.30
2019-05-30T05:56:07.065Z,50.21
2019-05-30T05:58:35.493Z,50.28
2019-05-30T06:01:04.798Z,50.68
2019-05-30T06:03:33.219Z,49.58
2019-05-30T06:06:01.681Z,49.33
2019-05-30T06:08:30.094Z,50.42
2019-05-30T06:10:58.812Z,49.36
2019-05-30T06:13:27.257Z,48.25
2019-05-30T06:15:55.683Z,48.48
2019-05-30T06:18:24.275Z,49.18
2019-05-30T06:20:52.820Z,49.31
2019-05-30T06:23:21.605Z,48.83
2019-05-30T06:25:50.067Z,48.41
2019-05-30T06:28:18.534Z,48.62
2019-05-30T06:30:46.974Z,48.33
2019-05-30T06:33:15.438Z,50.08
2019-05-30T06:35:43.856Z,48.73
2019-05-30T06:38:12.318Z,49.15
2019-05-30T06:40:40.743Z,48.76
2019-05-30T06:43:09.213Z,48.54
2019-05-30T06:45:37.630Z,48.82
2019-05-30T06:48:06.059Z,48.27
2019-05-30T06:50:34.500Z,48.38
2019-05-30T06:53:03.010Z,49.40
2019-05-30T06:55:31.549Z,49.05
2019-05-30T06:57:59.962Z,48.78
2019-05-30T07:00:29.811Z,49.20
2019-05-30T07:02:58.440Z,49.11
2019-05-30T07:05:28.522Z,48.98
2019-05-30T07:07:57.198Z,49.36
2019-05-30T07:10:26.809Z,50.00
2019-05-30T07:12:54.694Z,49.35
2019-05-30T07:15:23.296Z,48.57
2019-05-30T07:17:51.723Z,49.62
2019-05-30T07:20:20.651Z,49.47
2019-05-30T07:22:49.247Z,49.71
2019-05-30T07:25:17.656Z,49.31
2019-05-30T07:27:46.140Z,49.00
2019-05-30T07:30:15.303Z,49.63
2019-05-30T07:32:43.685Z,49.92
2019-05-30T07:35:12.240Z,49.37
2019-05-30T07:37:40.678Z,48.94
2019-05-30T07:40:10.353Z,48.52
2019-05-30T07:42:38.849Z,48.13
2019-05-30T07:45:09.947Z,48.89
2019-05-30T07:47:38.676Z,48.04
2019-05-30T07:50:07.719Z,48.21
2019-05-30T07:52:36.141Z,48.96
2019-05-30T07:55:06.988Z,48.23
2019-05-30T07:57:39.101Z,48.52
2019-05-30T08:00:10.855Z,48.75
2019-05-30T08:02:39.302Z,48.11
2019-05-30T08:05:23.029Z,48.87
2019-05-30T08:07:39.061Z,49.10
2019-05-30T08:10:08.957Z,50.33
2019-05-30T08:12:38.421Z,50.06
2019-05-30T08:15:08.837Z,51.29
2019-05-30T08:17:37.851Z,51.07
2019-05-30T08:20:07.222Z,51.68
2019-05-30T08:22:36.174Z,52.13
2019-05-30T08:25:07.939Z,53.65
2019-05-30T08:27:36.569Z,56.07
2019-05-30T08:30:10.800Z,54.89
2019-05-30T08:32:39.336Z,54.46
2019-05-30T08:35:08.109Z,57.14
2019-05-30T08:37:37.279Z,57.45
2019-05-30T08:40:08.197Z,58.66
2019-05-30T08:42:38.257Z,60.71
2019-05-30T08:45:09.638Z,61.81
2019-05-30T08:47:36.615Z,61.83
2019-05-30T08:50:07.143Z,65.56
2019-05-30T08:52:36.450Z,65.71
2019-05-30T08:55:07.425Z,66.63
2019-05-30T08:57:36.607Z,67.22
2019-05-30T09:00:09.857Z,69.67
2019-05-30T09:02:38.850Z,69.66
2019-05-30T09:05:07.834Z,69.04
2019-05-30T09:07:36.545Z,71.47
2019-05-30T09:10:08.980Z,71.33
2019-05-30T09:12:38.619Z,71.97
2019-05-30T09:15:12.748Z,72.45
2019-05-30T09:17:42.594Z,72.05
2019-05-30T09:20:12.506Z,72.53
2019-05-30T09:22:41.857Z,72.65
2019-05-30T09:25:11.762Z,72.62
2019-05-30T09:27:41.407Z,71.86
2019-05-30T09:30:13.336Z,72.36
2019-05-30T09:32:43.258Z,71.83
2019-05-30T09:35:13.210Z,71.21
2019-05-30T09:37:42.384Z,71.55
2019-05-30T09:40:12.619Z,71.35
2019-05-30T09:42:42.660Z,70.89
2019-05-30T09:45:11.969Z,71.65
2019-05-30T09:47:41.953Z,71.67
2019-05-30T09:50:10.990Z,70.47
2019-05-30T09:52:41.739Z,70.07
2019-05-30T09:55:10.980Z,68.26
2019-05-30T09:57:39.407Z,69.93
2019-05-30T10:00:12.419Z,69.41
2019-05-30T10:02:42.958Z,67.83
2019-05-30T10:05:11.562Z,67.63
2019-05-30T10:07:39.983Z,67.67
2019-05-30T10:10:09.078Z,67.22
2019-05-30T10:12:37.509Z,67.34
2019-05-30T10:15:12.251Z,66.96
2019-05-30T10:17:40.964Z,67.58
2019-05-30T10:20:09.699Z,66.93
2019-05-30T10:22:38.223Z,67.29
2019-05-30T10:25:07.491Z,67.39
2019-05-30T10:27:35.921Z,67.14
2019-05-30T10:30:09.275Z,67.54
2019-05-30T10:32:37.890Z,68.08
2019-05-30T10:35:08.762Z,66.48
2019-05-30T10:37:37.190Z,66.51
2019-05-30T10:40:08.378Z,66.96
2019-05-30T10:42:36.803Z,66.20
2019-05-30T10:45:10.096Z,66.81
2019-05-30T10:47:38.753Z,66.40
2019-05-30T10:50:08.233Z,66.36
2019-05-30T10:52:36.734Z,65.43
2019-05-30T10:55:09.833Z,64.87
2019-05-30T10:57:38.250Z,64.41
2019-05-30T11:00:12.658Z,64.73
2019-05-30T11:02:41.328Z,63.46
2019-05-30T11:05:11.876Z,63.70
2019-05-30T11:08:06.951Z,63.28
2019-05-30T11:10:38.157Z,62.40
2019-05-30T11:13:09.347Z,62.22
2019-05-30T11:15:37.954Z,61.57
2019-05-30T11:18:06.405Z,61.16
2019-05-30T11:20:34.822Z,60.93
2019-05-30T11:23:03.253Z,60.55
2019-05-30T11:25:32.928Z,59.63
2019-05-30T11:28:01.374Z,59.44
2019-05-30T11:30:30.076Z,59.43
2019-05-30T11:32:59.434Z,58.59
2019-05-30T11:35:28.308Z,57.37
2019-05-30T11:37:57.240Z,57.37
2019-05-30T11:40:25.780Z,57.22
2019-05-30T11:42:55.394Z,57.15
2019-05-30T11:45:24.404Z,57.50
2019-05-30T11:47:53.802Z,57.19
2019-05-30T11:50:23.080Z,57.44
2019-05-30T11:52:51.769Z,56.64
2019-05-30T11:55:20.321Z,56.29
2019-05-30T11:57:49.865Z,56.28
2019-05-30T12:00:19.015Z,56.35
2019-05-30T12:02:47.437Z,55.96
2019-05-30T12:05:16.328Z,55.95
2019-05-30T12:07:44.751Z,55.84
2019-05-30T12:10:14.322Z,55.84
2019-05-30T12:12:42.830Z,56.82
2019-05-30T12:15:13.030Z,56.82
2019-05-30T12:17:41.906Z,56.59
2019-05-30T12:20:10.979Z,56.85
2019-05-30T12:22:39.414Z,58.86
2019-05-30T12:25:08.586Z,58.34
2019-05-30T12:27:37.033Z,60.82
2019-05-30T12:30:12.403Z,59.43
2019-05-30T12:32:40.842Z,60.28
2019-05-30T12:35:10.207Z,62.05
2019-05-30T12:37:53.348Z,62.24
2019-05-30T12:40:09.737Z,62.86
2019-05-30T12:42:38.372Z,61.67
2019-05-30T12:45:08.629Z,65.02
2019-05-30T12:47:37.193Z,66.65
2019-05-30T12:50:07.947Z,65.92
2019-05-30T12:52:36.405Z,67.64
2019-05-30T12:55:10.100Z,67.20
2019-05-30T12:57:38.801Z,69.45
2019-05-30T13:00:18.429Z,70.56
2019-05-30T13:02:39.843Z,70.24
2019-05-30T13:05:10.243Z,71.38
2019-05-30T13:07:38.763Z,71.33
2019-05-30T13:10:08.133Z,71.46
2019-05-30T13:12:36.576Z,72.96
2019-05-30T13:15:08.453Z,71.98
2019-05-30T13:17:36.933Z,72.71
2019-05-30T13:20:07.988Z,72.30
2019-05-30T13:22:36.421Z,72.18
2019-05-30T13:25:09.050Z,71.46
2019-05-30T13:27:37.567Z,72.30
2019-05-30T13:30:10.076Z,70.86
2019-05-30T13:32:38.504Z,70.83
2019-05-30T13:35:07.907Z,71.07
2019-05-30T13:37:36.403Z,71.15
2019-05-30T13:40:24.330Z,70.66
2019-05-30T13:42:41.477Z,71.18
2019-05-30T13:45:10.906Z,72.23
2019-05-30T13:47:39.686Z,70.94
2019-05-30T13:50:13.398Z,70.88
2019-05-30T13:52:41.323Z,71.00
2019-05-30T13:55:10.654Z,70.75
2019-05-30T13:57:39.385Z,70.96
2019-05-30T14:00:10.726Z,70.31
2019-05-30T14:02:39.293Z,70.76
2019-05-30T14:05:10.517Z,69.88
2019-05-30T14:07:39.282Z,68.72
2019-05-30T14:10:08.642Z,69.54
2019-05-30T14:12:37.286Z,68.95
2019-05-30T14:15:13.154Z,68.02
2019-05-30T14:17:39.618Z,68.31
2019-05-30T14:20:11.060Z,66.83
2019-05-30T14:22:39.771Z,67.00
2019-05-30T14:25:09.662Z,67.66
2019-05-30T14:27:38.432Z,67.01
2019-05-30T14:30:08.975Z,66.27
2019-05-30T14:32:37.664Z,66.38
2019-05-30T14:35:11.742Z,66.79
2019-05-30T14:37:39.901Z,66.49
2019-05-30T14:40:15.873Z,66.79
2019-05-30T14:42:44.321Z,66.88
2019-05-30T14:45:16.648Z,66.39
2019-05-30T14:47:45.232Z,66.29
2019-05-30T14:50:17.148Z,66.59
2019-05-30T14:52:45.911Z,65.97
2019-05-30T14:55:15.021Z,66.07
2019-05-30T14:57:43.451Z,66.26
2019-05-30T15:00:17.824Z,65.24
2019-05-30T15:02:46.343Z,65.96
2019-05-30T15:05:15.820Z,64.88
2019-05-30T15:07:44.336Z,65.50
2019-05-30T15:10:14.657Z,65.63
2019-05-30T15:12:43.090Z,65.02
2019-05-30T15:15:14.776Z,65.27
2019-05-30T15:17:42.125Z,65.01
2019-05-30T15:20:12.136Z,64.83
2019-05-30T15:22:40.986Z,64.38
2019-05-30T15:25:10.015Z,64.62
2019-05-30T15:27:38.469Z,64.05
2019-05-30T15:30:12.477Z,64.76
2019-05-30T15:32:41.095Z,64.21
2019-05-30T15:35:11.032Z,64.32
2019-05-30T15:37:40.880Z,63.01
2019-05-30T15:40:11.385Z,63.57
2019-05-30T15:42:39.839Z,62.76
2019-05-30T15:45:10.278Z,62.06
2019-05-30T15:47:38.789Z,62.57
2019-05-30T15:50:08.323Z,61.33
2019-05-30T15:52:37.292Z,61.34
2019-05-30T15:55:07.450Z,61.08
2019-05-30T15:57:36.460Z,61.04
2019-05-30T16:00:08.033Z,60.51
2019-05-30T16:02:36.468Z,60.02
2019-05-30T16:05:06.643Z,60.07
2019-05-30T16:07:35.088Z,59.67
2019-05-30T16:10:05.157Z,60.09
2019-05-30T16:12:33.602Z,60.71
2019-05-30T16:15:02.040Z,60.25
2019-05-30T16:17:30.531Z,60.31
2019-05-30T16:19:58.967Z,59.46
2019-05-30T16:22:27.968Z,59.68
2019-05-30T16:24:56.410Z,59.46
2019-05-30T16:27:25.986Z,59.75
2019-05-30T16:29:54.465Z,59.66
2019-05-30T16:32:22.951Z,59.80
2019-05-30T16:34:52.170Z,60.01
2019-05-30T16:37:20.615Z,60.25
2019-05-30T16:40:04.690Z,60.02
2019-05-30T16:42:20.261Z,60.04
2019-05-30T16:44:49.030Z,59.42
2019-05-30T16:47:18.400Z,59.91
2019-05-30T16:49:46.954Z,59.87
2019-05-30T16:52:15.384Z,60.40
2019-05-30T16:54:43.818Z,60.57
2019-05-30T16:57:12.256Z,60.26
2019-05-30T16:59:40.727Z,60.21
2019-05-30T17:02:09.260Z,60.69
2019-05-30T17:04:37.677Z,60.52
2019-05-30T17:07:06.170Z,60.67
2019-05-30T17:09:34.598Z,61.06
2019-05-30T17:12:03.089Z,60.71
2019-05-30T17:14:31.602Z,61.18
2019-05-30T17:17:02.840Z,61.11
2019-05-30T17:19:30.229Z,61.35
2019-05-30T17:21:58.759Z,61.22
2019-05-30T17:24:27.334Z,61.29
2019-05-30T17:26:55.808Z,61.63
2019-05-30T17:29:25.636Z,61.75
2019-05-30T17:31:53.512Z,61.79
2019-05-30T17:34:21.898Z,60.80
2019-05-30T17:36:50.365Z,61.82
2019-05-30T17:39:18.954Z,61.89
2019-05-30T17:41:47.503Z,61.79
2019-05-30T17:44:15.984Z,61.75
2019-05-30T17:46:44.430Z,61.67
2019-05-30T17:49:12.865Z,62.09
2019-05-30T17:51:41.329Z,61.81
2019-05-30T17:54:09.773Z,61.92
2019-05-30T17:56:38.189Z,62.03
2019-05-30T17:59:06.633Z,62.39
2019-05-30T18:01:35.070Z,62.80
2019-05-30T18:04:03.606Z,62.69
2019-05-30T18:06:32.038Z,62.76
2019-05-30T18:09:00.482Z,63.15
2019-05-30T18:11:29.075Z,62.85
2019-05-30T18:13:57.538Z,62.87
2019-05-30T18:16:27.091Z,63.30
2019-05-30T18:18:56.150Z,62.85
2019-05-30T18:21:25.415Z,63.05
2019-05-30T18:23:53.855Z,63.31
2019-05-30T18:26:23.413Z,63.43
2019-05-30T18:28:51.966Z,63.80
2019-05-30T18:31:21.804Z,63.66
2019-05-30T18:33:50.423Z,63.85
2019-05-30T18:36:18.857Z,63.67
2019-05-30T18:38:47.311Z,63.63
2019-05-30T18:41:16.661Z,64.02
2019-05-30T18:43:45.144Z,63.85
2019-05-30T18:46:13.581Z,63.90
2019-05-30T18:48:42.017Z,64.12
2019-05-30T18:51:10.523Z,64.38
2019-05-30T18:53:39.039Z,64.43
2019-05-30T18:56:07.801Z,64.65
2019-05-30T18:58:37.257Z,65.39
2019-05-30T19:01:06.197Z,65.28
2019-05-30T19:03:34.677Z,65.51
2019-05-30T19:06:03.179Z,65.63
2019-05-30T19:08:32.065Z,65.88
2019-05-30T19:11:00.531Z,65.76
2019-05-30T19:13:29.064Z,65.86
2019-05-30T19:15:57.440Z,65.87
2019-05-30T19:18:25.864Z,65.79
2019-05-30T19:20:54.304Z,65.85
2019-05-30T19:23:22.735Z,65.95
2019-05-30T19:25:51.193Z,65.84
2019-05-30T19:28:19.620Z,65.52
2019-05-30T19:30:48.065Z,65.77
2019-05-30T19:33:20.517Z,65.57
2019-05-30T19:35:49.506Z,65.90
2019-05-30T19:38:16.889Z,65.70
2019-05-30T19:40:45.373Z,65.66
2019-05-30T19:43:13.789Z,65.72
2019-05-30T19:45:42.243Z,66.02
2019-05-30T19:48:10.958Z,66.22
2019-05-30T19:50:39.405Z,66.17
2019-05-30T19:53:07.843Z,66.50
2019-05-30T19:55:37.527Z,66.53
2019-05-30T19:58:06.086Z,66.25
2019-05-30T20:00:50.217Z,66.57
2019-05-30T20:03:05.422Z,66.32
2019-05-30T20:05:34.509Z,66.69
2019-05-30T20:08:03.091Z,66.45
2019-05-30T20:10:32.724Z,66.55
2019-05-30T20:13:01.248Z,66.43
2019-05-30T20:15:31.156Z,66.38
2019-05-30T20:17:59.105Z,66.71
2019-05-30T20:20:27.490Z,64.92
2019-05-30T20:22:55.950Z,66.59
2019-05-30T20:25:24.887Z,66.73
2019-05-30T20:27:53.387Z,66.90
2019-05-30T20:30:22.159Z,66.86
2019-05-30T20:32:50.614Z,67.13
2019-05-30T20:35:19.034Z,67.27
2019-05-30T20:37:47.470Z,67.38
2019-05-30T20:40:16.744Z,67.36
2019-05-30T20:42:45.184Z,67.47
2019-05-30T20:45:15.664Z,67.48
2019-05-30T20:47:44.547Z,67.78
2019-05-30T20:50:15.096Z,67.82
2019-05-30T20:52:45.632Z,68.01
2019-05-30T20:55:13.541Z,68.16
2019-05-30T20:57:42.531Z,66.34
2019-05-30T21:00:12.895Z,68.01
2019-05-30T21:02:41.351Z,68.55
2019-05-30T21:05:10.229Z,68.63
2019-05-30T21:07:39.825Z,68.53
2019-05-30T21:10:11.259Z,69.01
2019-05-30T21:12:43.535Z,68.88
2019-05-30T21:15:09.482Z,69.21
2019-05-30T21:17:37.921Z,67.20
2019-05-30T21:20:11.135Z,69.22
2019-05-30T21:22:38.247Z,69.74
2019-05-30T21:25:08.125Z,69.76
2019-05-30T21:27:36.953Z,70.09
2019-05-30T21:30:07.515Z,69.34
2019-05-30T21:32:37.202Z,70.33
2019-05-30T21:35:08.152Z,70.75
2019-05-30T21:37:37.650Z,70.64
2019-05-30T21:40:09.309Z,71.02
2019-05-30T21:42:55.330Z,70.89
2019-05-30T21:45:08.585Z,71.04
2019-05-30T21:47:37.015Z,71.34
2019-05-30T21:50:06.793Z,71.29
2019-05-30T21:52:35.254Z,71.36
2019-05-30T21:55:04.926Z,71.36
2019-05-30T21:57:32.643Z,71.74
2019-05-30T22:00:01.028Z,70.08
2019-05-30T22:02:29.525Z,71.85
2019-05-30T22:04:57.971Z,71.78
2019-05-30T22:07:26.419Z,71.97
2019-05-30T22:09:54.858Z,72.17
2019-05-30T22:12:23.307Z,72.12
2019-05-30T22:14:52.047Z,72.08
2019-05-30T22:17:20.555Z,72.54
2019-05-30T22:19:50.047Z,72.71
2019-05-30T22:22:18.658Z,72.53
2019-05-30T22:24:48.384Z,72.48
2019-05-30T22:27:16.996Z,72.70
2019-05-30T22:29:46.384Z,72.46
2019-05-30T22:32:14.869Z,72.37
2019-05-30T22:34:44.611Z,72.18
2019-05-30T22:37:13.285Z,72.18
2019-05-30T22:39:42.754Z,71.77
2019-05-30T22:42:10.561Z,71.98
2019-05-30T22:44:38.995Z,70.47
2019-05-30T22:47:07.447Z,71.50
2019-05-30T22:49:35.893Z,71.54
2019-05-30T22:52:04.335Z,71.55
2019-05-30T22:54:32.774Z,71.15
2019-05-30T22:57:01.537Z,71.30
2019-05-30T22:59:30.030Z,71.06
2019-05-30T23:01:58.476Z,71.23
2019-05-30T23:04:26.916Z,71.01
2019-05-30T23:06:56.433Z,70.52
2019-05-30T23:09:24.872Z,70.52
2019-05-30T23:11:53.860Z,70.57
2019-05-30T23:14:22.431Z,70.44
2019-05-30T23:16:52.228Z,70.40
2019-05-30T23:19:20.810Z,70.46
2019-05-30T23:21:49.250Z,70.36
2019-05-30T23:24:17.686Z,70.29
2019-05-30T23:26:47.393Z,70.55
2019-05-30T23:29:15.924Z,70.31
2019-05-30T23:31:44.381Z,70.25
2019-05-30T23:34:12.827Z,70.57
2019-05-30T23:36:41.258Z,70.58
2019-05-30T23:39:09.713Z,70.69
2019-05-30T23:41:38.187Z,70.89
2019-05-30T23:44:11.153Z,70.90
2019-05-30T23:46:36.793Z,70.87
2019-05-30T23:49:05.232Z,70.95
2019-05-30T23:51:33.681Z,71.15
2019-05-30T23:54:02.141Z,71.44
2019-05-30T23:56:30.576Z,71.33
2019-05-30T23:58:59.010Z,71.60
